Strona główna
METAR-TAF:

METAR-TAF

Lotnisko :

Henderson City-County Airport

Henderson, Kentucky, Stany Zjednoczone

Szerokość geograficzna: 37-49N, Długość geograficzna: 087-41W, wysokość: 117 m

Aktualna obserwacja pogody

Raport powstał 54 minut temu, godzina 14:56 UTC
Wiatr 18 kt od zachodnio-południowy zachód w porywach dochodzący do 22 kt
Temperatura 26°C
Wilgotność 74%
Ciśnienie 1012 hPa
Widzialność: 16.1 km
Przerywane chmury na wysokości 2600 ft

METAR: KEHR 041456Z AUTO 24018G22KT 10SM BKN026 26/21 A2987 RMK AO2 SLP109 T02610206 53009

czas: 10:50 (15:50 UTC)


TAF: brakujący

Obserwacja i prognoza pogody dla ponad 4000 lotnisk (raport METAR i TAF).

Dostępne stacje oznaczono żółtymi i czerwonymi punktami na mapie.

Najedź kursorem aby zobaczyć nazwę stacji.

Kliknij aby zobaczyć obserwacje i prognozy pogody.

Aby zmienić mapę: kliknij na zielony przycisk z czarnym krzyżykiem, aby powiększyć; na zielony przycisk z myślnikiem, aby pomniejszyć; na zielone strzałki, aby przejść do map sąsiednich.


METAR-TAF: